Time,TemperatureF,DewpointF,PressureIn,WindDirection,WindDirectionDegrees,WindSpeedMPH,WindSpeedGustMPH,Humidity,HourlyPrecipIn,Conditions,Clouds,dailyrainin,SoftwareType,DateUTC
2013-10-27 00:01:00,41.9,35.9,29.77,SSW,195,2.9,4.6,79,0.00,RA,,0.00,WeatherDisplay:10.37,2013-10-27 04:01:00,
2013-10-27 00:06:00,41.8,36.1,29.77,SSW,204,2.5,6.9,80,0.00,RA,,0.00,WeatherDisplay:10.37,2013-10-27 04:06:00,
2013-10-27 00:11:00,41.6,35.9,29.77,South,187,3.3,4.6,80,0.00,,,0.00,WeatherDisplay:10.37,2013-10-27 04:11:00,
2013-10-27 00:16:00,41.5,36.1,29.77,South,184,4.3,5.8,81,0.00,,,0.00,WeatherDisplay:10.37,2013-10-27 04:16:00,
2013-10-27 00:21:00,41.4,36.0,29.77,South,179,3.2,6.0,81,0.00,,,0.00,WeatherDisplay:10.37,2013-10-27 04:21:00,
2013-10-27 00:26:00,41.3,35.9,29.76,South,191,2.1,4.0,81,0.00,,,0.00,WeatherDisplay:10.37,2013-10-27 04:26:00,
2013-10-27 00:31:00,41.1,36.0,29.76,South,181,1.8,4.0,82,0.00,,,0.00,WeatherDisplay:10.37,2013-10-27 04:31:00,
2013-10-27 00:36:00,41.0,35.9,29.76,SSW,202,3.9,4.0,82,0.00,,,0.00,WeatherDisplay:10.37,2013-10-27 04:36:00,
2013-10-27 00:41:00,40.8,35.7,29.76,SSW,194,2.1,4.6,82,0.00,,,0.00,WeatherDisplay:10.37,2013-10-27 04:41:00,
2013-10-27 00:46:00,40.7,35.9,29.76,SSW,203,3.5,5.8,83,0.00,,,0.00,WeatherDisplay:10.37,2013-10-27 04:46:00,
2013-10-27 00:51:00,40.7,35.9,29.76,South,172,4.1,6.0,83,0.00,,,0.00,WeatherDisplay:10.37,2013-10-27 04:51:00,
2013-10-27 00:56:00,40.7,36.2,29.76,South,180,3.3,5.8,84,0.00,,,0.00,WeatherDisplay:10.37,2013-10-27 04:56:00,
2013-10-27 01:01:00,40.7,36.2,29.76,SSW,209,2.4,4.6,84,0.00,,,0.00,WeatherDisplay:10.37,2013-10-27 05:01:00,
2013-10-27 01:06:00,40.8,36.3,29.76,SSW,200,3.5,9.2,84,0.00,,,0.00,WeatherDisplay:10.37,2013-10-27 05:06:00,
2013-10-27 01:11:00,40.9,36.4,29.77,SSW,203,2.2,3.5,84,0.00,,,0.00,WeatherDisplay:10.37,2013-10-27 05:11:00,
2013-10-27 01:16:00,40.9,36.4,29.77,WSW,238,4.3,5.8,84,0.00,,,0.00,WeatherDisplay:10.37,2013-10-27 05:16:00,
2013-10-27 01:21:00,40.9,36.4,29.77,SW,236,3.5,5.0,84,0.00,,,0.00,WeatherDisplay:10.37,2013-10-27 05:21:00,
2013-10-27 01:26:00,40.9,36.4,29.77,South,182,2.9,6.0,84,0.00,,,0.00,WeatherDisplay:10.37,2013-10-27 05:26:00,
2013-10-27 01:31:00,40.9,36.4,29.77,South,178,3.3,6.9,84,0.00,,,0.00,WeatherDisplay:10.37,2013-10-27 05:31:00,
2013-10-27 01:36:00,41.0,36.5,29.77,SSW,201,2.2,3.5,84,0.00,,,0.00,WeatherDisplay:10.37,2013-10-27 05:36:00,
2013-10-27 01:41:00,41.0,36.5,29.77,SSW,199,1.3,3.5,84,0.00,,,0.00,WeatherDisplay:10.37,2013-10-27 05:41:00,
2013-10-27 01:46:00,40.9,36.4,29.77,South,191,1.9,3.5,84,0.00,,,0.00,WeatherDisplay:10.37,2013-10-27 05:46:00,
2013-10-27 01:51:00,40.9,36.4,29.77,SSW,209,1.2,3.5,84,0.00,,,0.00,WeatherDisplay:10.37,2013-10-27 05:51:00,
2013-10-27 01:56:00,40.9,36.4,29.77,South,190,2.5,4.6,84,0.00,,,0.00,WeatherDisplay:10.37,2013-10-27 05:56:00,
2013-10-27 02:01:00,40.9,36.4,29.77,SW,229,2.7,3.5,84,0.00,,,0.00,WeatherDisplay:10.37,2013-10-27 06:01:00,
2013-10-27 02:06:00,40.9,36.4,29.77,South,186,3.3,4.6,84,0.00,,,0.00,WeatherDisplay:10.37,2013-10-27 06:06:00,
2013-10-27 02:11:00,41.0,36.5,29.77,South,180,1.2,4.6,84,0.00,,,0.00,WeatherDisplay:10.37,2013-10-27 06:11:00,
2013-10-27 02:16:00,41.0,36.5,29.77,South,191,2.6,3.5,84,0.00,,,0.00,WeatherDisplay:10.37,2013-10-27 06:16:00,
2013-10-27 02:21:00,41.1,36.6,29.77,SSW,194,4.3,6.9,84,0.00,,,0.00,WeatherDisplay:10.37,2013-10-27 06:21:00,
2013-10-27 02:26:00,41.2,36.7,29.78,SSW,196,2.5,5.0,84,0.00,,,0.00,WeatherDisplay:10.37,2013-10-27 06:26:00,
2013-10-27 02:31:00,41.4,36.9,29.78,SW,214,2.3,5.8,84,0.00,,,0.00,WeatherDisplay:10.37,2013-10-27 06:31:00,
2013-10-27 02:36:00,41.5,37.0,29.78,SW,215,3.3,3.5,84,0.00,,,0.00,WeatherDisplay:10.37,2013-10-27 06:36:00,
2013-10-27 02:41:00,41.5,37.0,29.78,South,186,2.7,6.9,84,0.00,,,0.00,WeatherDisplay:10.37,2013-10-27 06:41:00,
2013-10-27 02:46:00,41.6,36.8,29.78,SSW,198,4.9,8.1,83,0.00,,,0.00,WeatherDisplay:10.37,2013-10-27 06:46:00,
2013-10-27 02:51:00,41.6,36.8,29.78,SW,222,5.2,11.5,83,0.00,,,0.00,WeatherDisplay:10.37,2013-10-27 06:51:00,
2013-10-27 02:56:00,41.7,36.9,29.78,South,173,4.3,8.0,83,0.00,,,0.00,WeatherDisplay:10.37,2013-10-27 06:56:00,
2013-10-27 03:01:00,41.7,36.9,29.78,SW,235,3.9,5.8,83,0.00,,,0.00,WeatherDisplay:10.37,2013-10-27 07:01:00,
2013-10-27 03:06:00,41.7,36.9,29.78,SSE,150,5.3,8.0,83,0.00,,,0.00,WeatherDisplay:10.37,2013-10-27 07:06:00,
2013-10-27 03:11:00,41.7,36.9,29.79,SSW,205,4.8,8.1,83,0.00,,,0.00,WeatherDisplay:10.37,2013-10-27 07:11:00,
2013-10-27 03:16:00,41.6,36.8,29.79,SW,222,4.7,7.0,83,0.00,,,0.00,WeatherDisplay:10.37,2013-10-27 07:16:00,
2013-10-27 03:21:00,41.6,37.1,29.79,SSW,198,2.8,5.8,84,0.00,,,0.00,WeatherDisplay:10.37,2013-10-27 07:21:00,
2013-10-27 03:26:00,41.5,37.0,29.79,SSW,211,2.0,4.6,84,0.00,,,0.00,WeatherDisplay:10.37,2013-10-27 07:26:00,
2013-10-27 03:31:00,41.5,37.0,29.79,SSW,206,3.9,5.8,84,0.00,,,0.00,WeatherDisplay:10.37,2013-10-27 07:31:00,
2013-10-27 03:36:00,41.4,36.9,29.79,SSW,197,0.4,2.3,84,0.00,,,0.00,WeatherDisplay:10.37,2013-10-27 07:36:00,
2013-10-27 03:41:00,41.5,37.0,29.79,West,265,5.3,9.2,84,0.00,CLR,,0.00,WeatherDisplay:10.37,2013-10-27 07:41:00,
2013-10-27 03:46:00,41.4,36.9,29.79,SW,217,4.9,6.9,84,0.00,CLR,,0.00,WeatherDisplay:10.37,2013-10-27 07:46:00,
2013-10-27 03:51:00,41.4,36.9,29.80,SW,236,0.4,6.9,84,0.00,CLR,,0.00,WeatherDisplay:10.37,2013-10-27 07:51:00,
2013-10-27 03:56:00,41.4,37.2,29.80,SW,223,1.4,3.5,85,0.00,CLR,,0.00,WeatherDisplay:10.37,2013-10-27 07:56:00,
2013-10-27 04:01:00,41.3,37.1,29.80,SSW,193,4.6,9.2,85,0.00,CLR,,0.00,WeatherDisplay:10.37,2013-10-27 08:01:00,
2013-10-27 04:06:00,41.3,37.1,29.80,SSE,165,4.2,5.8,85,0.00,CLR,,0.00,WeatherDisplay:10.37,2013-10-27 08:06:00,
2013-10-27 04:11:00,41.3,37.1,29.80,SW,222,3.9,8.0,85,0.00,CLR,,0.00,WeatherDisplay:10.37,2013-10-27 08:11:00,
2013-10-27 04:16:00,41.2,37.0,29.80,WSW,247,4.2,9.2,85,0.00,CLR,,0.00,WeatherDisplay:10.37,2013-10-27 08:16:00,
2013-10-27 04:21:00,41.1,36.9,29.80,SW,219,1.3,2.3,85,0.00,CLR,,0.00,WeatherDisplay:10.37,2013-10-27 08:21:00,
2013-10-27 04:26:00,41.0,36.8,29.80,SSW,209,2.6,4.0,85,0.00,CLR,,0.00,WeatherDisplay:10.37,2013-10-27 08:26:00,
2013-10-27 04:31:00,41.0,36.8,29.80,SW,233,2.3,5.8,85,0.00,CLR,,0.00,WeatherDisplay:10.37,2013-10-27 08:31:00,
2013-10-27 04:36:00,41.0,36.8,29.80,SSW,205,1.9,4.0,85,0.00,CLR,,0.00,WeatherDisplay:10.37,2013-10-27 08:36:00,
2013-10-27 04:41:00,41.1,36.9,29.81,SSW,194,2.8,4.6,85,0.00,CLR,,0.00,WeatherDisplay:10.37,2013-10-27 08:41:00,
2013-10-27 04:46:00,41.1,36.9,29.81,WSW,241,3.4,4.6,85,0.00,CLR,,0.00,WeatherDisplay:10.37,2013-10-27 08:46:00,
2013-10-27 04:51:00,41.1,36.9,29.81,SSW,192,2.8,4.6,85,0.00,CLR,,0.00,WeatherDisplay:10.37,2013-10-27 08:51:00,
2013-10-27 04:56:00,41.1,36.9,29.81,SSW,201,1.2,4.6,85,0.00,CLR,,0.00,WeatherDisplay:10.37,2013-10-27 08:56:00,
2013-10-27 05:01:00,41.0,38.0,29.81,South,175,2.9,6.9,89,0.00,CLR,,0.00,WeatherDisplay:10.37,2013-10-27 09:01:00,
2013-10-27 05:06:00,40.9,36.7,29.82,SW,225,4.8,9.2,85,0.00,CLR,,0.00,WeatherDisplay:10.37,2013-10-27 09:06:00,
2013-10-27 05:11:00,40.7,36.5,29.82,SSW,211,3.6,6.9,85,0.00,CLR,,0.00,WeatherDisplay:10.37,2013-10-27 09:11:00,
2013-10-27 05:16:00,40.6,36.4,29.82,SSW,213,2.9,5.8,85,0.00,CLR,,0.00,WeatherDisplay:10.37,2013-10-27 09:16:00,
2013-10-27 05:21:00,40.4,36.2,29.82,SSW,202,4.8,10.4,85,0.00,CLR,,0.00,WeatherDisplay:10.37,2013-10-27 09:21:00,
2013-10-27 05:26:00,40.2,36.3,29.82,SSW,209,2.7,3.5,86,0.00,CLR,,0.00,WeatherDisplay:10.37,2013-10-27 09:26:00,
2013-10-27 05:31:00,40.0,36.2,29.83,SW,214,3.0,5.8,86,0.00,CLR,,0.00,WeatherDisplay:10.37,2013-10-27 09:31:00,
2013-10-27 05:36:00,39.8,36.0,29.83,WSW,239,1.9,4.0,86,0.00,CLR,,0.00,WeatherDisplay:10.37,2013-10-27 09:36:00,
2013-10-27 05:41:00,39.7,35.9,29.83,SW,223,3.5,5.0,86,0.00,CLR,,0.00,WeatherDisplay:10.37,2013-10-27 09:41:00,
2013-10-27 05:46:00,39.6,36.0,29.83,SW,214,3.2,4.0,87,0.00,CLR,,0.00,WeatherDisplay:10.37,2013-10-27 09:46:00,
2013-10-27 05:51:00,39.6,36.0,29.83,SSW,211,1.7,4.6,87,0.00,CLR,,0.00,WeatherDisplay:10.37,2013-10-27 09:51:00,
2013-10-27 05:56:00,39.6,36.0,29.83,SSW,204,2.8,4.0,87,0.00,CLR,,0.00,WeatherDisplay:10.37,2013-10-27 09:56:00,
2013-10-27 06:01:00,39.5,36.0,29.84,SSW,200,0.9,3.5,87,0.00,CLR,,0.00,WeatherDisplay:10.37,2013-10-27 10:01:00,
2013-10-27 06:06:00,39.4,35.9,29.84,South,183,1.5,3.5,87,0.00,CLR,,0.00,WeatherDisplay:10.37,2013-10-27 10:06:00,
2013-10-27 06:11:00,39.3,36.0,29.84,SSW,201,0.7,2.3,88,0.00,CLR,,0.00,WeatherDisplay:10.37,2013-10-27 10:11:00,
2013-10-27 06:16:00,39.2,35.9,29.84,South,185,1.6,2.3,88,0.00,CLR,,0.00,WeatherDisplay:10.37,2013-10-27 10:16:00,
2013-10-27 06:21:00,39.1,35.8,29.84,WSW,245,0.0,0.0,88,0.00,CLR,,0.00,WeatherDisplay:10.37,2013-10-27 10:21:00,
2013-10-27 06:26:00,39.0,35.7,29.84,SSW,198,2.0,3.5,88,0.00,CLR,,0.00,WeatherDisplay:10.37,2013-10-27 10:26:00,
2013-10-27 06:31:00,38.9,35.6,29.84,SSW,194,1.7,3.5,88,0.00,CLR,,0.00,WeatherDisplay:10.37,2013-10-27 10:31:00,
2013-10-27 06:36:00,38.8,35.6,29.85,SSW,209,1.7,3.5,88,0.00,CLR,,0.00,WeatherDisplay:10.37,2013-10-27 10:36:00,
2013-10-27 06:41:00,38.7,35.5,29.85,WSW,249,0.6,4.0,88,0.00,CLR,,0.00,WeatherDisplay:10.37,2013-10-27 10:41:00,
2013-10-27 06:46:00,38.6,35.4,29.85,SW,219,1.6,3.5,88,0.00,CLR,,0.00,WeatherDisplay:10.37,2013-10-27 10:46:00,
2013-10-27 06:51:00,38.4,35.2,29.85,SW,222,1.2,2.3,88,0.00,CLR,,0.00,WeatherDisplay:10.37,2013-10-27 10:51:00,
2013-10-27 06:56:00,38.3,35.1,29.85,SW,234,0.2,1.1,88,0.00,CLR,,0.00,WeatherDisplay:10.37,2013-10-27 10:56:00,
2013-10-27 07:01:00,38.3,35.3,29.86,SSW,202,1.5,3.5,89,0.00,CLR,,0.00,WeatherDisplay:10.37,2013-10-27 11:01:00,
2013-10-27 07:06:00,38.1,35.1,29.85,SW,222,1.3,5.0,89,0.00,CLR,,0.00,WeatherDisplay:10.37,2013-10-27 11:06:00,
2013-10-27 07:11:00,38.0,35.0,29.86,SSW,208,0.6,2.3,89,0.00,CLR,,0.00,WeatherDisplay:10.37,2013-10-27 11:11:00,
2013-10-27 07:16:00,38.0,35.0,29.86,SW,232,0.6,2.3,89,0.00,CLR,,0.00,WeatherDisplay:10.37,2013-10-27 11:16:00,
2013-10-27 07:21:00,37.9,34.9,29.86,South,191,0.0,1.1,89,0.00,CLR,,0.00,WeatherDisplay:10.37,2013-10-27 11:21:00,
2013-10-27 07:26:00,37.8,34.8,29.86,SSW,192,0.0,0.0,89,0.00,CLR,,0.00,WeatherDisplay:10.37,2013-10-27 11:26:00,
2013-10-27 07:31:00,37.7,35.0,29.87,WSW,244,1.0,4.6,90,0.00,CLR,,0.00,WeatherDisplay:10.37,2013-10-27 11:31:00,
2013-10-27 07:36:00,37.7,35.0,29.87,SW,225,0.7,2.3,90,0.00,CLR,,0.00,WeatherDisplay:10.37,2013-10-27 11:36:00,
2013-10-27 07:41:00,37.7,35.0,29.87,SSW,199,0.8,3.5,90,0.00,CLR,,0.00,WeatherDisplay:10.37,2013-10-27 11:41:00,
2013-10-27 07:46:00,37.7,35.0,29.88,SW,223,0.1,2.3,90,0.00,CLR,,0.00,WeatherDisplay:10.37,2013-10-27 11:46:00,
2013-10-27 07:51:00,37.6,34.9,29.87,SW,220,0.5,2.3,90,0.00,CLR,,0.00,WeatherDisplay:10.37,2013-10-27 11:51:00,
2013-10-27 07:56:00,37.6,34.9,29.88,SW,235,0.3,3.0,90,0.00,CLR,,0.00,WeatherDisplay:10.37,2013-10-27 11:56:00,
2013-10-27 08:01:00,37.5,34.8,29.88,SW,214,0.6,2.3,90,0.00,CLR,,0.00,WeatherDisplay:10.37,2013-10-27 12:01:00,
2013-10-27 08:06:00,37.5,34.8,29.88,SSW,200,0.8,3.5,90,0.00,CLR,,0.00,WeatherDisplay:10.37,2013-10-27 12:06:00,
2013-10-27 08:11:00,37.6,34.9,29.88,SW,224,2.7,8.1,90,0.00,CLR,,0.00,WeatherDisplay:10.37,2013-10-27 12:11:00,
2013-10-27 08:16:00,37.7,35.0,29.88,SW,217,0.7,3.5,90,0.00,CLR,,0.00,WeatherDisplay:10.37,2013-10-27 12:16:00,
2013-10-27 08:21:00,37.8,35.1,29.88,SW,227,0.0,0.0,90,0.00,CLR,,0.00,WeatherDisplay:10.37,2013-10-27 12:21:00,
2013-10-27 08:26:00,37.9,35.2,29.89,SSW,207,2.8,6.0,90,0.00,CLR,,0.00,WeatherDisplay:10.37,2013-10-27 12:26:00,
2013-10-27 08:31:00,38.0,35.0,29.89,West,280,0.8,2.3,89,0.00,CLR,,0.00,WeatherDisplay:10.37,2013-10-27 12:31:00,
2013-10-27 08:36:00,38.3,35.3,29.89,South,191,0.0,0.0,89,0.00,CLR,,0.00,WeatherDisplay:10.37,2013-10-27 12:36:00,
2013-10-27 08:41:00,38.4,35.4,29.89,South,180,1.7,3.5,89,0.00,CLR,,0.00,WeatherDisplay:10.37,2013-10-27 12:41:00,
2013-10-27 08:46:00,38.6,35.6,29.90,SSW,211,0.2,3.5,89,0.00,CLR,,0.00,WeatherDisplay:10.37,2013-10-27 12:46:00,
2013-10-27 08:51:00,38.8,35.6,29.90,South,182,1.2,3.5,88,0.00,CLR,,0.00,WeatherDisplay:10.37,2013-10-27 12:51:00,
2013-10-27 08:56:00,39.0,35.7,29.90,SSW,205,1.8,4.6,88,0.00,CLR,,0.00,WeatherDisplay:10.37,2013-10-27 12:56:00,
2013-10-27 09:01:00,39.2,35.9,29.90,SW,221,1.3,5.8,88,0.00,CLR,,0.00,WeatherDisplay:10.37,2013-10-27 13:01:00,
2013-10-27 09:06:00,39.4,36.1,29.91,WSW,245,2.0,5.8,88,0.00,CLR,,0.00,WeatherDisplay:10.37,2013-10-27 13:06:00,
2013-10-27 09:11:00,39.8,36.5,29.91,SW,219,3.0,5.8,88,0.00,CLR,,0.00,WeatherDisplay:10.37,2013-10-27 13:11:00,
2013-10-27 09:16:00,40.2,36.6,29.91,SW,218,0.4,1.1,87,0.00,CLR,,0.00,WeatherDisplay:10.37,2013-10-27 13:16:00,
2013-10-27 09:21:00,40.4,36.5,29.91,SSW,207,3.6,8.1,86,0.00,CLR,,0.00,WeatherDisplay:10.37,2013-10-27 13:21:00,
2013-10-27 09:26:00,40.6,36.7,29.91,South,187,2.6,4.6,86,0.00,CLR,,0.00,WeatherDisplay:10.37,2013-10-27 13:26:00,
2013-10-27 09:31:00,40.7,36.8,29.92,SW,221,3.5,4.6,86,0.00,CLR,,0.00,WeatherDisplay:10.37,2013-10-27 13:31:00,
2013-10-27 09:36:00,41.1,36.9,29.91,SSW,197,2.2,3.5,85,0.00,CLR,,0.00,WeatherDisplay:10.37,2013-10-27 13:36:00,
2013-10-27 09:41:00,41.4,37.2,29.91,South,176,4.1,5.8,85,0.00,CLR,,0.00,WeatherDisplay:10.37,2013-10-27 13:41:00,
2013-10-27 09:46:00,41.5,36.7,29.91,SSW,207,3.9,4.6,83,0.00,CLR,,0.00,WeatherDisplay:10.37,2013-10-27 13:46:00,
2013-10-27 09:51:00,41.6,36.8,29.92,SE,128,0.7,4.6,83,0.00,CLR,,0.00,WeatherDisplay:10.37,2013-10-27 13:51:00,
2013-10-27 09:56:00,41.8,36.7,29.92,SW,215,1.7,8.1,82,0.00,CLR,,0.00,WeatherDisplay:10.37,2013-10-27 13:56:00,
2013-10-27 10:01:00,42.0,36.9,29.92,SSE,164,1.4,3.5,82,0.00,CLR,,0.00,WeatherDisplay:10.37,2013-10-27 14:01:00,
2013-10-27 10:06:00,42.2,36.8,29.92,SSW,212,4.8,6.9,81,0.00,CLR,,0.00,WeatherDisplay:10.37,2013-10-27 14:06:00,
2013-10-27 10:11:00,42.3,36.6,29.92,SW,215,4.7,6.9,80,0.00,CLR,,0.00,WeatherDisplay:10.37,2013-10-27 14:11:00,
2013-10-27 10:16:00,42.3,36.6,29.92,SSW,210,3.4,5.8,80,0.00,CLR,,0.00,WeatherDisplay:10.37,2013-10-27 14:16:00,
2013-10-27 10:21:00,42.4,36.7,29.92,SSW,205,0.7,2.3,80,0.00,CLR,,0.00,WeatherDisplay:10.37,2013-10-27 14:21:00,
2013-10-27 10:26:00,42.4,36.7,29.92,SW,225,3.6,4.6,80,0.00,CLR,,0.00,WeatherDisplay:10.37,2013-10-27 14:26:00,
2013-10-27 10:31:00,42.4,36.7,29.92,SW,225,2.9,7.0,80,0.00,CLR,,0.00,WeatherDisplay:10.37,2013-10-27 14:31:00,
2013-10-27 10:36:00,42.5,36.4,29.92,South,186,2.8,3.5,79,0.00,CLR,,0.00,WeatherDisplay:10.37,2013-10-27 14:36:00,
2013-10-27 10:41:00,42.7,36.6,29.92,SSE,167,1.1,3.5,79,0.00,CLR,,0.00,WeatherDisplay:10.37,2013-10-27 14:41:00,
2013-10-27 10:46:00,42.8,36.4,29.92,SW,222,3.6,4.6,78,0.00,CLR,,0.00,WeatherDisplay:10.37,2013-10-27 14:46:00,
2013-10-27 10:51:00,42.8,36.4,29.92,SW,215,1.7,3.5,78,0.00,CLR,,0.00,WeatherDisplay:10.37,2013-10-27 14:51:00,
2013-10-27 10:56:00,42.9,36.2,29.92,North,360,0.4,2.3,77,0.00,CLR,,0.00,WeatherDisplay:10.37,2013-10-27 14:56:00,
2013-10-27 11:01:00,43.0,36.6,29.92,WSW,254,2.7,3.5,78,0.00,CLR,,0.00,WeatherDisplay:10.37,2013-10-27 15:01:00,
2013-10-27 11:06:00,43.2,36.5,29.92,SW,230,3.3,9.2,77,0.00,CLR,,0.00,WeatherDisplay:10.37,2013-10-27 15:06:00,
2013-10-27 11:11:00,43.4,36.7,29.92,SSW,208,1.6,4.6,77,0.00,CLR,,0.00,WeatherDisplay:10.37,2013-10-27 15:11:00,
2013-10-27 11:16:00,43.6,36.9,29.92,NW,311,0.3,3.5,77,0.00,CLR,,0.00,WeatherDisplay:10.37,2013-10-27 15:16:00,
2013-10-27 11:21:00,44.0,36.9,29.93,SSW,192,4.4,6.9,76,0.00,CLR,,0.00,WeatherDisplay:10.37,2013-10-27 15:21:00,
2013-10-27 11:26:00,44.2,36.4,29.93,NW,322,1.6,3.5,74,0.00,CLR,,0.00,WeatherDisplay:10.37,2013-10-27 15:26:00,
2013-10-27 11:31:00,44.2,35.7,29.93,SW,222,2.7,3.5,72,0.00,CLR,,0.00,WeatherDisplay:10.37,2013-10-27 15:31:00,
2013-10-27 11:36:00,44.2,36.1,29.93,SW,222,0.0,0.0,73,0.00,CLR,,0.00,WeatherDisplay:10.37,2013-10-27 15:36:00,
2013-10-27 11:41:00,44.5,36.4,29.93,NW,311,1.2,4.6,73,0.00,CLR,,0.00,WeatherDisplay:10.37,2013-10-27 15:41:00,
2013-10-27 11:46:00,44.9,36.1,29.94,South,183,1.8,3.5,71,0.00,CLR,,0.00,WeatherDisplay:10.37,2013-10-27 15:46:00,
2013-10-27 11:51:00,45.1,35.9,29.94,SW,214,0.5,2.3,70,0.00,CLR,,0.00,WeatherDisplay:10.37,2013-10-27 15:51:00,
2013-10-27 11:56:00,45.5,36.6,29.94,South,184,1.6,4.6,71,0.00,CLR,,0.00,WeatherDisplay:10.37,2013-10-27 15:56:00,
2013-10-27 12:01:00,45.4,35.1,29.94,South,181,4.4,6.9,67,0.00,CLR,,0.00,WeatherDisplay:10.37,2013-10-27 16:01:00,
2013-10-27 12:06:00,45.1,34.8,29.94,SW,232,3.4,6.9,67,0.00,CLR,,0.00,WeatherDisplay:10.37,2013-10-27 16:06:00,
2013-10-27 12:11:00,45.1,35.2,29.94,SSW,210,2.0,3.5,68,0.00,CLR,,0.00,WeatherDisplay:10.37,2013-10-27 16:11:00,
2013-10-27 12:16:00,45.3,35.0,29.94,South,178,2.6,5.8,67,0.00,CLR,,0.00,WeatherDisplay:10.37,2013-10-27 16:16:00,
2013-10-27 12:21:00,45.6,35.3,29.94,SSW,204,0.7,4.6,67,0.00,CLR,,0.00,WeatherDisplay:10.37,2013-10-27 16:21:00,
2013-10-27 12:26:00,45.8,35.1,29.94,SSW,202,3.7,6.9,66,0.00,CLR,,0.00,WeatherDisplay:10.37,2013-10-27 16:26:00,
2013-10-27 12:31:00,45.6,34.1,29.94,SSW,203,8.5,12.7,64,0.00,CLR,,0.00,WeatherDisplay:10.37,2013-10-27 16:31:00,
2013-10-27 12:36:00,45.5,34.0,29.94,West,267,2.4,4.6,64,0.00,CLR,,0.00,WeatherDisplay:10.37,2013-10-27 16:36:00,
2013-10-27 12:41:00,45.8,34.3,29.94,NNW,329,3.3,5.8,64,0.00,CLR,,0.00,WeatherDisplay:10.37,2013-10-27 16:41:00,
2013-10-27 12:46:00,45.8,33.9,29.93,South,191,3.0,5.8,63,0.00,CLR,,0.00,WeatherDisplay:10.37,2013-10-27 16:46:00,
2013-10-27 12:51:00,45.9,34.0,29.93,South,191,3.5,6.9,63,0.00,CLR,,0.00,WeatherDisplay:10.37,2013-10-27 16:51:00,
2013-10-27 12:56:00,46.2,34.7,29.93,South,173,1.4,5.0,64,0.00,CLR,,0.00,WeatherDisplay:10.37,2013-10-27 16:56:00,
2013-10-27 13:01:00,46.4,34.1,29.93,WSW,240,4.4,9.2,62,0.00,CLR,,0.00,WeatherDisplay:10.37,2013-10-27 17:01:00,
2013-10-27 13:06:00,46.8,34.9,29.93,SSW,203,3.9,5.8,63,0.00,CLR,,0.00,WeatherDisplay:10.37,2013-10-27 17:06:00,
2013-10-27 13:11:00,47.2,35.2,29.93,SSW,197,0.0,1.0,63,0.00,CLR,,0.00,WeatherDisplay:10.37,2013-10-27 17:11:00,
2013-10-27 13:16:00,47.5,34.3,29.93,NNE,17,2.1,6.9,60,0.00,CLR,,0.00,WeatherDisplay:10.37,2013-10-27 17:16:00,
2013-10-27 13:21:00,47.4,33.8,29.93,South,176,1.6,8.1,59,0.00,CLR,,0.00,WeatherDisplay:10.37,2013-10-27 17:21:00,
2013-10-27 13:26:00,47.1,33.5,29.93,South,174,3.5,4.6,59,0.00,CLR,,0.00,WeatherDisplay:10.37,2013-10-27 17:26:00,
2013-10-27 13:31:00,47.3,33.7,29.93,NW,306,4.0,6.9,59,0.00,CLR,,0.00,WeatherDisplay:10.37,2013-10-27 17:31:00,
2013-10-27 13:36:00,47.7,33.6,29.92,SW,219,4.2,5.8,58,0.00,CLR,,0.00,WeatherDisplay:10.37,2013-10-27 17:36:00,
2013-10-27 13:41:00,48.1,34.0,29.92,SSW,203,2.7,5.8,58,0.00,CLR,,0.00,WeatherDisplay:10.37,2013-10-27 17:41:00,
2013-10-27 13:46:00,48.2,33.7,29.92,SSW,203,5.1,6.9,57,0.00,CLR,,0.00,WeatherDisplay:10.37,2013-10-27 17:46:00,
2013-10-27 13:51:00,47.9,33.4,29.92,South,191,2.9,6.9,57,0.00,CLR,,0.00,WeatherDisplay:10.37,2013-10-27 17:51:00,
2013-10-27 13:56:00,47.8,34.2,29.92,SSW,198,4.7,8.1,59,0.00,CLR,,0.00,WeatherDisplay:10.37,2013-10-27 17:56:00,
2013-10-27 14:01:00,47.8,34.6,29.92,South,187,2.7,9.2,60,0.00,,,0.00,WeatherDisplay:10.37,2013-10-27 18:01:00,
2013-10-27 14:06:00,47.8,34.6,29.92,NW,307,3.0,5.8,60,0.00,,,0.00,WeatherDisplay:10.37,2013-10-27 18:06:00,
2013-10-27 14:11:00,47.7,34.5,29.92,SW,229,3.5,4.6,60,0.00,,,0.00,WeatherDisplay:10.37,2013-10-27 18:11:00,
2013-10-27 14:16:00,47.5,34.7,29.92,South,182,2.9,6.9,61,0.00,,,0.00,WeatherDisplay:10.37,2013-10-27 18:16:00,
2013-10-27 14:21:00,47.3,34.5,29.92,SSW,203,0.7,4.6,61,0.00,,,0.00,WeatherDisplay:10.37,2013-10-27 18:21:00,
2013-10-27 14:26:00,47.2,34.4,29.92,NNW,334,2.2,3.5,61,0.00,,,0.00,WeatherDisplay:10.37,2013-10-27 18:26:00,
2013-10-27 14:31:00,47.0,34.6,29.92,SW,234,5.2,6.9,62,0.00,,,0.00,WeatherDisplay:10.37,2013-10-27 18:31:00,
2013-10-27 14:36:00,46.8,34.9,29.93,WSW,237,1.2,4.6,63,0.00,,,0.00,WeatherDisplay:10.37,2013-10-27 18:36:00,
2013-10-27 14:41:00,46.7,34.4,29.93,NW,313,0.5,3.5,62,0.00,,,0.00,WeatherDisplay:10.37,2013-10-27 18:41:00,
2013-10-27 14:46:00,46.7,34.4,29.93,North,355,0.0,1.0,62,0.00,,,0.00,WeatherDisplay:10.37,2013-10-27 18:46:00,
2013-10-27 14:51:00,46.8,34.5,29.93,South,186,2.3,4.6,62,0.00,,,0.00,WeatherDisplay:10.37,2013-10-27 18:51:00,
2013-10-27 14:56:00,46.8,34.5,29.93,WSW,248,0.4,2.3,62,0.00,,,0.00,WeatherDisplay:10.37,2013-10-27 18:56:00,
2013-10-27 15:01:00,46.9,35.0,29.93,SSW,210,1.7,4.6,63,0.00,,,0.00,WeatherDisplay:10.37,2013-10-27 19:01:00,
2013-10-27 15:06:00,46.8,34.5,29.93,SW,218,4.5,6.9,62,0.00,,,0.00,WeatherDisplay:10.37,2013-10-27 19:06:00,
2013-10-27 15:11:00,46.7,34.4,29.93,South,182,5.6,8.1,62,0.00,,,0.00,WeatherDisplay:10.37,2013-10-27 19:11:00,
2013-10-27 15:16:00,46.5,34.6,29.93,SSW,203,1.4,2.3,63,0.00,,,0.00,WeatherDisplay:10.37,2013-10-27 19:16:00,
2013-10-27 15:21:00,46.6,34.7,29.93,SW,225,3.9,5.8,63,0.00,,,0.00,WeatherDisplay:10.37,2013-10-27 19:21:00,
2013-10-27 15:26:00,46.5,34.6,29.93,SSW,201,2.5,4.6,63,0.00,,,0.00,WeatherDisplay:10.37,2013-10-27 19:26:00,
2013-10-27 15:31:00,46.4,34.1,29.93,SW,230,3.4,11.5,62,0.00,,,0.00,WeatherDisplay:10.37,2013-10-27 19:31:00,
2013-10-27 15:36:00,46.3,34.4,29.93,SSW,194,2.9,3.5,63,0.00,,,0.00,WeatherDisplay:10.37,2013-10-27 19:36:00,
2013-10-27 15:41:00,46.2,34.3,29.93,South,176,2.8,4.6,63,0.00,,,0.00,WeatherDisplay:10.37,2013-10-27 19:41:00,
2013-10-27 15:46:00,46.1,34.2,29.94,SW,226,8.0,13.8,63,0.00,,,0.00,WeatherDisplay:10.37,2013-10-27 19:46:00,
2013-10-27 15:51:00,46.2,34.7,29.94,SW,215,4.0,6.9,64,0.00,,,0.00,WeatherDisplay:10.37,2013-10-27 19:51:00,
2013-10-27 15:56:00,46.2,35.1,29.94,South,169,1.6,4.6,65,0.00,,,0.00,WeatherDisplay:10.37,2013-10-27 19:56:00,
2013-10-27 16:01:00,46.3,35.2,29.94,SW,226,0.0,1.1,65,0.00,,,0.00,WeatherDisplay:10.37,2013-10-27 20:01:00,
2013-10-27 16:06:00,46.5,35.7,29.94,WSW,248,0.0,0.0,66,0.00,,,0.00,WeatherDisplay:10.37,2013-10-27 20:06:00,
2013-10-27 16:11:00,46.6,35.5,29.94,West,259,1.7,4.6,65,0.00,,,0.00,WeatherDisplay:10.37,2013-10-27 20:11:00,
2013-10-27 16:16:00,46.6,35.8,29.94,NNW,346,0.6,2.3,66,0.00,,,0.00,WeatherDisplay:10.37,2013-10-27 20:16:00,
2013-10-27 16:21:00,46.5,35.7,29.94,SSW,201,0.1,1.1,66,0.00,,,0.00,WeatherDisplay:10.37,2013-10-27 20:21:00,
2013-10-27 16:26:00,46.4,35.7,29.94,SSW,195,0.7,3.5,66,0.00,,,0.00,WeatherDisplay:10.37,2013-10-27 20:26:00,
2013-10-27 16:31:00,46.4,36.0,29.94,SW,222,0.7,2.3,67,0.00,,,0.00,WeatherDisplay:10.37,2013-10-27 20:31:00,
2013-10-27 16:36:00,46.3,35.6,29.95,SW,225,0.2,1.1,66,0.00,,,0.00,WeatherDisplay:10.37,2013-10-27 20:36:00,
2013-10-27 16:41:00,46.2,35.5,29.95,SW,235,1.1,3.5,66,0.00,,,0.00,WeatherDisplay:10.37,2013-10-27 20:41:00,
2013-10-27 16:46:00,46.1,35.4,29.95,SSW,199,0.2,1.1,66,0.00,,,0.00,WeatherDisplay:10.37,2013-10-27 20:46:00,
2013-10-27 16:51:00,46.1,35.7,29.95,West,263,0.0,1.1,67,0.00,,,0.00,WeatherDisplay:10.37,2013-10-27 20:51:00,
2013-10-27 16:56:00,46.1,36.1,29.95,West,263,0.0,0.0,68,0.00,,,0.00,WeatherDisplay:10.37,2013-10-27 20:56:00,
2013-10-27 17:01:00,46.1,36.1,29.95,SSW,202,0.0,0.0,68,0.00,,,0.00,WeatherDisplay:10.37,2013-10-27 21:01:00,
2013-10-27 17:06:00,46.0,36.0,29.95,West,260,0.0,0.0,68,0.00,,,0.00,WeatherDisplay:10.37,2013-10-27 21:06:00,
2013-10-27 17:11:00,46.0,36.0,29.95,SW,227,2.2,5.8,68,0.00,,,0.00,WeatherDisplay:10.37,2013-10-27 21:11:00,
2013-10-27 17:16:00,45.8,35.8,29.95,SW,215,0.0,0.0,68,0.00,,,0.00,WeatherDisplay:10.37,2013-10-27 21:16:00,
2013-10-27 17:21:00,45.7,35.7,29.95,SSW,211,0.1,2.3,68,0.00,,,0.00,WeatherDisplay:10.37,2013-10-27 21:21:00,
2013-10-27 17:26:00,45.7,35.7,29.95,SW,221,2.0,3.5,68,0.00,,,0.00,WeatherDisplay:10.37,2013-10-27 21:26:00,
2013-10-27 17:31:00,45.6,35.6,29.95,SW,218,0.3,1.1,68,0.00,,,0.00,WeatherDisplay:10.37,2013-10-27 21:31:00,
2013-10-27 17:36:00,45.5,35.5,29.95,SW,215,0.0,0.0,68,0.00,,,0.00,WeatherDisplay:10.37,2013-10-27 21:36:00,
2013-10-27 17:41:00,45.5,35.9,29.95,SW,217,0.3,1.1,69,0.00,,,0.00,WeatherDisplay:10.37,2013-10-27 21:41:00,
2013-10-27 17:46:00,45.3,35.7,29.96,SW,236,0.6,2.3,69,0.00,,,0.00,WeatherDisplay:10.37,2013-10-27 21:46:00,
2013-10-27 17:51:00,45.1,35.9,29.96,SW,236,0.0,0.0,70,0.00,,,0.00,WeatherDisplay:10.37,2013-10-27 21:51:00,
2013-10-27 17:56:00,45.0,35.8,29.97,SSW,213,0.1,1.1,70,0.00,,,0.00,WeatherDisplay:10.37,2013-10-27 21:56:00,
2013-10-27 18:01:00,45.0,35.8,29.96,SW,214,0.0,0.0,70,0.00,,,0.00,WeatherDisplay:10.37,2013-10-27 22:01:00,
2013-10-27 18:06:00,45.0,35.8,29.96,SSW,213,0.0,0.0,70,0.00,,,0.00,WeatherDisplay:10.37,2013-10-27 22:06:00,
2013-10-27 18:11:00,44.8,35.6,29.97,SW,215,1.0,2.3,70,0.00,,,0.00,WeatherDisplay:10.37,2013-10-27 22:11:00,
2013-10-27 18:16:00,44.7,35.9,29.97,SSW,199,1.0,3.5,71,0.00,,,0.00,WeatherDisplay:10.37,2013-10-27 22:16:00,
2013-10-27 18:21:00,44.6,35.8,29.97,SSW,199,0.0,0.0,71,0.00,,,0.00,WeatherDisplay:10.37,2013-10-27 22:21:00,
2013-10-27 18:26:00,44.5,36.0,29.97,SSW,199,0.1,1.1,72,0.00,,,0.00,WeatherDisplay:10.37,2013-10-27 22:26:00,
2013-10-27 18:31:00,44.4,35.9,29.97,SSW,199,0.0,1.1,72,0.00,,,0.00,WeatherDisplay:10.37,2013-10-27 22:31:00,
2013-10-27 18:36:00,44.3,35.8,29.98,SSW,211,0.1,1.1,72,0.00,,,0.00,WeatherDisplay:10.37,2013-10-27 22:36:00,
2013-10-27 18:41:00,44.2,35.7,29.98,WSW,246,0.6,2.3,72,0.00,,,0.00,WeatherDisplay:10.37,2013-10-27 22:41:00,
2013-10-27 18:46:00,44.2,35.7,29.98,SW,221,0.0,0.0,72,0.00,,,0.00,WeatherDisplay:10.37,2013-10-27 22:46:00,
2013-10-27 18:51:00,44.1,35.6,29.98,SW,218,0.0,1.1,72,0.00,,,0.00,WeatherDisplay:10.37,2013-10-27 22:51:00,
2013-10-27 18:56:00,44.0,35.6,29.98,WSW,244,0.0,1.1,72,0.00,,,0.00,WeatherDisplay:10.37,2013-10-27 22:56:00,
2013-10-27 19:01:00,44.0,35.6,29.98,SW,235,0.0,0.0,72,0.00,,,0.00,WeatherDisplay:10.37,2013-10-27 23:01:00,
2013-10-27 19:06:00,43.9,35.5,29.98,South,185,0.4,1.1,72,0.00,,,0.00,WeatherDisplay:10.37,2013-10-27 23:06:00,
2013-10-27 19:11:00,43.9,35.5,29.98,SSW,195,0.4,1.1,72,0.00,,,0.00,WeatherDisplay:10.37,2013-10-27 23:11:00,
2013-10-27 19:16:00,43.9,35.5,29.98,SW,224,0.6,2.3,72,0.00,,,0.00,WeatherDisplay:10.37,2013-10-27 23:16:00,
2013-10-27 19:21:00,43.8,35.4,29.98,South,179,1.1,3.5,72,0.00,,,0.00,WeatherDisplay:10.37,2013-10-27 23:21:00,
2013-10-27 19:26:00,43.8,35.4,29.98,South,180,0.2,1.1,72,0.00,,,0.00,WeatherDisplay:10.37,2013-10-27 23:26:00,
2013-10-27 19:31:00,43.8,35.4,29.99,SSW,194,0.4,2.3,72,0.00,,,0.00,WeatherDisplay:10.37,2013-10-27 23:31:00,
2013-10-27 19:36:00,43.7,35.3,29.99,SSW,194,0.5,2.3,72,0.00,,,0.00,WeatherDisplay:10.37,2013-10-27 23:36:00,
2013-10-27 19:41:00,43.7,35.3,29.99,SSW,194,0.0,0.0,72,0.00,CLR,,0.00,WeatherDisplay:10.37,2013-10-27 23:41:00,
2013-10-27 19:46:00,43.6,35.2,29.99,SSW,194,0.0,0.0,72,0.00,CLR,,0.00,WeatherDisplay:10.37,2013-10-27 23:46:00,
2013-10-27 19:51:00,43.6,35.2,29.99,SSW,194,0.3,1.1,72,0.00,CLR,,0.00,WeatherDisplay:10.37,2013-10-27 23:51:00,
2013-10-27 19:56:00,43.5,35.1,29.99,WSW,240,0.0,0.0,72,0.00,CLR,,0.00,WeatherDisplay:10.37,2013-10-27 23:56:00,
2013-10-27 20:01:00,43.3,34.9,29.99,WSW,240,0.0,0.0,72,0.00,CLR,,0.00,WeatherDisplay:10.37,2013-10-28 00:01:00,
2013-10-27 20:06:00,43.1,34.7,29.99,SSW,198,0.0,0.0,72,0.00,CLR,,0.00,WeatherDisplay:10.37,2013-10-28 00:06:00,
2013-10-27 20:11:00,42.9,34.8,29.99,SSW,198,0.0,0.0,73,0.00,CLR,,0.00,WeatherDisplay:10.37,2013-10-28 00:11:00,
2013-10-27 20:16:00,42.6,34.5,29.99,SSW,198,0.0,0.0,73,0.00,CLR,,0.00,WeatherDisplay:10.37,2013-10-28 00:16:00,
2013-10-27 20:21:00,42.3,34.6,29.99,SSW,198,0.0,0.0,74,0.00,CLR,,0.00,WeatherDisplay:10.37,2013-10-28 00:21:00,
2013-10-27 20:26:00,42.0,34.3,29.99,SSW,198,0.0,0.0,74,0.00,CLR,,0.00,WeatherDisplay:10.37,2013-10-28 00:26:00,
2013-10-27 20:31:00,41.8,34.5,29.99,SSW,198,0.0,0.0,75,0.00,CLR,,0.00,WeatherDisplay:10.37,2013-10-28 00:31:00,
2013-10-27 20:36:00,41.5,34.2,29.99,SSW,198,0.0,0.0,75,0.00,CLR,,0.00,WeatherDisplay:10.37,2013-10-28 00:36:00,
2013-10-27 20:41:00,41.4,34.4,30.00,SSW,198,0.0,0.0,76,0.00,,,0.00,WeatherDisplay:10.37,2013-10-28 00:41:00,
2013-10-27 20:46:00,41.2,34.5,29.99,SSW,198,0.0,0.0,77,0.00,,,0.00,WeatherDisplay:10.37,2013-10-28 00:46:00,
2013-10-27 20:51:00,41.1,34.4,30.00,SSW,198,0.0,0.0,77,0.00,,,0.00,WeatherDisplay:10.37,2013-10-28 00:51:00,
2013-10-27 20:56:00,41.1,34.4,29.99,SSW,198,0.0,0.0,77,0.00,,,0.00,WeatherDisplay:10.37,2013-10-28 00:56:00,
2013-10-27 21:01:00,41.1,34.4,30.00,SSW,198,0.0,0.0,77,0.00,,,0.00,WeatherDisplay:10.37,2013-10-28 01:01:00,
2013-10-27 21:06:00,41.0,35.6,30.00,SSW,198,0.0,0.0,81,0.00,,,0.00,WeatherDisplay:10.37,2013-10-28 01:06:00,
2013-10-27 21:11:00,40.9,34.2,30.00,SSW,198,0.0,0.0,77,0.00,,,0.00,WeatherDisplay:10.37,2013-10-28 01:11:00,
2013-10-27 21:16:00,40.7,34.0,30.00,SSW,198,0.0,0.0,77,0.00,,,0.00,WeatherDisplay:10.37,2013-10-28 01:16:00,
2013-10-27 21:21:00,40.6,34.3,30.00,SSW,198,0.0,0.0,78,0.00,,,0.00,WeatherDisplay:10.37,2013-10-28 01:21:00,
2013-10-27 21:26:00,40.3,34.3,30.00,SSW,198,0.0,0.0,79,0.00,,,0.00,WeatherDisplay:10.37,2013-10-28 01:26:00,
2013-10-27 21:31:00,40.0,34.0,30.00,SSW,198,0.0,0.0,79,0.00,,,0.00,WeatherDisplay:10.37,2013-10-28 01:31:00,
2013-10-27 21:36:00,39.7,33.7,30.00,SSW,198,0.0,0.0,79,0.00,,,0.00,WeatherDisplay:10.37,2013-10-28 01:36:00,
2013-10-27 21:41:00,39.5,33.8,30.00,SSW,198,0.0,0.0,80,0.00,,,0.00,WeatherDisplay:10.37,2013-10-28 01:41:00,
2013-10-27 21:46:00,39.3,33.6,30.00,SSW,198,0.0,1.1,80,0.00,,,0.00,WeatherDisplay:10.37,2013-10-28 01:46:00,
2013-10-27 21:51:00,39.2,33.5,30.00,SSW,198,0.0,0.0,80,0.00,,,0.00,WeatherDisplay:10.37,2013-10-28 01:51:00,
2013-10-27 21:56:00,39.4,33.7,30.00,SSW,198,0.0,0.0,80,0.00,,,0.00,WeatherDisplay:10.37,2013-10-28 01:56:00,
2013-10-27 22:01:00,39.6,33.6,30.00,SSW,198,0.3,1.1,79,0.00,,,0.00,WeatherDisplay:10.37,2013-10-28 02:01:00,
2013-10-27 22:06:00,39.9,33.6,30.00,SSW,198,1.0,2.3,78,0.00,,,0.00,WeatherDisplay:10.37,2013-10-28 02:06:00,
2013-10-27 22:11:00,40.2,33.9,30.00,SSW,196,0.1,1.1,78,0.00,,,0.00,WeatherDisplay:10.37,2013-10-28 02:11:00,
2013-10-27 22:16:00,40.4,33.8,30.00,SSW,196,0.5,2.3,77,0.00,,,0.00,WeatherDisplay:10.37,2013-10-28 02:16:00,
2013-10-27 22:21:00,40.6,34.0,30.00,SSW,199,0.2,1.1,77,0.00,,,0.00,WeatherDisplay:10.37,2013-10-28 02:21:00,
2013-10-27 22:26:00,40.7,33.7,30.00,SSW,200,0.0,0.0,76,0.00,,,0.00,WeatherDisplay:10.37,2013-10-28 02:26:00,
2013-10-27 22:31:00,40.7,33.7,30.01,SSW,200,0.0,0.0,76,0.00,,,0.00,WeatherDisplay:10.37,2013-10-28 02:31:00,
2013-10-27 22:36:00,40.6,33.6,30.01,SSW,200,0.0,0.0,76,0.00,,,0.00,WeatherDisplay:10.37,2013-10-28 02:36:00,
2013-10-27 22:41:00,40.5,33.5,30.01,SSW,199,0.0,0.0,76,0.00,,,0.00,WeatherDisplay:10.37,2013-10-28 02:41:00,
2013-10-27 22:46:00,40.3,33.7,30.01,SSW,199,0.0,0.0,77,0.00,,,0.00,WeatherDisplay:10.37,2013-10-28 02:46:00,
2013-10-27 22:51:00,40.1,33.5,30.01,SSW,200,0.0,0.0,77,0.00,,,0.00,WeatherDisplay:10.37,2013-10-28 02:51:00,
2013-10-27 22:56:00,39.8,33.5,30.02,SSW,199,0.0,0.0,78,0.00,,,0.00,WeatherDisplay:10.37,2013-10-28 02:56:00,
2013-10-27 23:01:00,39.6,33.6,30.01,SSW,200,0.0,0.0,79,0.00,,,0.00,WeatherDisplay:10.37,2013-10-28 03:01:00,
2013-10-27 23:06:00,39.4,33.4,30.01,SSW,200,0.0,0.0,79,0.00,,,0.00,WeatherDisplay:10.37,2013-10-28 03:06:00,
2013-10-27 23:11:00,39.3,33.6,30.01,SSW,200,0.0,0.0,80,0.00,,,0.00,WeatherDisplay:10.37,2013-10-28 03:11:00,
2013-10-27 23:16:00,39.3,33.6,30.01,SSW,200,0.0,0.0,80,0.00,,,0.00,WeatherDisplay:10.37,2013-10-28 03:16:00,
2013-10-27 23:21:00,39.3,34.0,30.01,SSW,200,0.0,0.0,81,0.00,,,0.00,WeatherDisplay:10.37,2013-10-28 03:21:00,
2013-10-27 23:26:00,39.3,34.0,30.00,SSW,200,0.0,0.0,81,0.00,,,0.00,WeatherDisplay:10.37,2013-10-28 03:26:00,
2013-10-27 23:31:00,39.3,34.0,30.00,SSW,200,0.0,0.0,81,0.00,,,0.00,WeatherDisplay:10.37,2013-10-28 03:31:00,
2013-10-27 23:36:00,39.3,34.0,30.00,SSW,199,0.0,0.0,81,0.00,,,0.00,WeatherDisplay:10.37,2013-10-28 03:36:00,
2013-10-27 23:41:00,39.3,34.3,30.00,SSW,200,0.0,0.0,82,0.00,,,0.00,WeatherDisplay:10.37,2013-10-28 03:41:00,
2013-10-27 23:46:00,39.4,34.4,30.00,SSW,200,0.0,0.0,82,0.00,,,0.00,WeatherDisplay:10.37,2013-10-28 03:46:00,
2013-10-27 23:51:00,39.5,34.5,30.00,SSW,200,0.0,0.0,82,0.00,,,0.00,WeatherDisplay:10.37,2013-10-28 03:51:00,
2013-10-27 23:56:00,39.6,34.6,30.00,SSW,199,0.0,0.0,82,0.00,,,0.00,WeatherDisplay:10.37,2013-10-28 03:56:00,